Latest Weather Observations for Sheffield

IDT60801

Issued at 11:31 pm EST Tuesday 26 May 2015 (issued every 30 minutes, with the page automatically refreshed every 10 minutes)

About weather observations | Map of weather stations | Latest weather observations for TAS | Other Formats
Station Details ID: 091291 Name: SHEFFIELD SCHOOL FARM Lat: -41.39 Lon: 146.32 Height: 294.2 m
Data from the previous 72 hours. | See also: Recent months at Sheffield
Date/Time
EST
Temp
°C
App
Temp
°C
Dew
Point
Rel
Hum
%
Delta-T
°C
Wind Press
QNH
hPa
Press
MSL
hPa
Rain
since 9 am
mm
Dir
 
Spd
km/h
Gust
km/h
Spd
kts
Gust
kts
26/11:30pm 7.1 5.2 6.8 98 0.1 SE 6 9 3 5 1023.1 1023.4 0.2
26/11:00pm 5.9 3.7 5.5 97 0.2 SE 6 7 3 4 1023.3 1023.6 0.2
26/10:30pm 5.8 4.0 5.4 97 0.2 ESE 4 6 2 3 1023.1 1023.4 0.2
26/10:00pm 5.5 3.0 4.9 96 0.3 SE 7 7 4 4 1023.4 1023.7 0.2
26/09:30pm 6.0 3.8 5.1 94 0.4 SE 6 6 3 3 1023.8 1024.1 0.2
26/09:00pm 7.4 6.7 7.0 97 0.2 CALM 0 0 0 0 1024.1 1024.4 0.2
26/08:30pm 7.3 6.1 6.6 95 0.3 N 2 4 1 2 1024.1 1024.4 0.2
26/08:00pm 7.8 6.6 6.6 92 0.6 SE 2 2 1 1 1024.0 1024.3 0.2
26/07:30pm 8.4 7.3 6.9 90 0.7 S 2 4 1 2 1024.1 1024.4 0.2
26/07:00pm 8.5 7.1 7.4 93 0.5 WNW 4 6 2 3 1024.1 1024.4 0.2
26/06:30pm 9.1 7.3 8.0 93 0.5 NW 7 7 4 4 1024.2 1024.5 0.2
26/06:00pm 9.4 7.8 8.2 92 0.6 NNW 6 6 3 3 1024.2 1024.5 0.2
26/05:30pm 10.0 7.9 8.3 89 0.8 N 9 9 5 5 1024.3 1024.6 0.2
26/05:00pm 10.4 8.3 8.2 86 1.1 N 9 11 5 6 1024.1 1024.4 0.2
26/04:30pm 11.0 8.9 6.7 75 2.1 NNW 7 11 4 6 1024.1 1024.4 0.2
26/04:00pm 13.1 10.6 6.7 65 3.1 NW 9 11 5 6 1024.3 1024.6 0.2
26/03:30pm 13.6 10.6 6.2 61 3.6 WNW 11 15 6 8 1024.4 1024.8 0.2
26/03:00pm 14.2 11.3 6.6 60 3.7 WNW 11 15 6 8 1024.4 1024.8 0.2
26/02:30pm 14.4 11.6 7.0 61 3.7 WNW 11 15 6 8 1024.5 1024.9 0.2
26/02:00pm 13.8 12.0 7.8 67 3.0 NNW 7 13 4 7 1024.7 1025.1 0.2
26/01:30pm 13.7 11.0 7.2 65 3.2 NW 11 15 6 8 1024.9 1025.3 0.2
26/01:00pm 14.1 12.0 8.1 67 3.0 NW 9 13 5 7 1025.3 1025.7 0.2
26/12:30pm 13.0 10.7 9.1 77 2.0 NNW 11 13 6 7 1025.7 1026.1 0.2
26/12:00pm 12.2 10.5 8.5 78 1.9 NNW 7 11 4 6 1026.0 1026.4 0.2
26/11:30am 12.3 10.7 8.8 79 1.8 NW 7 9 4 5 1026.5 1026.8 0.2
26/11:00am 11.1 9.0 8.3 83 1.4 NNW 9 13 5 7 1026.9 1027.2 0.2
26/10:30am 11.6 9.5 8.1 79 1.7 NNW 9 13 5 7 1027.1 1027.4 0.2
26/10:00am 10.1 8.2 7.7 85 1.2 N 7 11 4 6 1027.0 1027.3 0.2
26/09:30am 8.5 6.4 6.8 89 0.8 NW 7 9 4 5 1026.9 1027.2 0.2
26/09:00am 7.8 5.5 5.6 86 1.0 NW 7 11 4 6 1027.0 1027.3 0.2
26/08:30am 7.9 5.7 6.4 90 0.7 NNW 7 9 4 5 1027.1 1027.4 0.2
26/08:00am 6.2 2.7 5.3 94 0.4 WNW 13 19 7 10 1027.1 1027.4 0.2
26/07:30am 4.7 1.7 4.3 97 0.2 NNW 9 11 5 6 1026.9 1027.2 0.2
26/07:00am 5.0 2.6 4.3 95 0.3 WNW 6 7 3 4 1026.8 1027.1 0.2
26/06:30am 7.0 4.6 5.3 89 0.8 NNW 7 9 4 5 1026.7 1027.0 0.2
26/06:00am 7.0 5.2 5.6 91 0.6 NNW 4 6 2 3 1026.6 1026.9 0.2
26/05:30am 7.3 5.0 5.9 91 0.6 NNW 7 9 4 5 1026.7 1027.0 0.2
26/05:00am 5.3 2.8 4.6 95 0.3 N 7 11 4 6 1026.6 1026.9 0.2
26/04:30am 5.1 2.2 4.4 95 0.3 NNW 9 13 5 7 1026.7 1027.0 0.2
26/04:00am 6.7 4.0 5.8 94 0.4 NNW 9 11 5 6 1026.4 1026.7 0.2
26/03:30am 6.1 3.8 5.7 97 0.2 N 7 9 4 5 1026.5 1026.8 0.2
26/03:00am 5.9 3.7 5.5 97 0.2 NE 6 11 3 6 1026.6 1026.9 0.2
26/02:30am 3.9 0.3 3.2 95 0.3 NW 11 13 6 7 1026.8 1027.1 0.2
26/02:00am 5.5 2.6 4.6 94 0.4 NW 9 15 5 8 1026.9 1027.2 0.2
26/01:30am 6.1 4.5 4.6 90 0.7 NW 2 7 1 4 1026.9 1027.2 0.2
26/01:00am 6.3 4.0 4.8 90 0.7 ENE 6 7 3 4 1026.9 1027.2 0.2
26/12:30am 6.6 3.9 5.7 94 0.4 N 9 9 5 5 1027.2 1027.5 0.2
26/12:00am 7.1 4.9 6.2 94 0.4 N 7 9 4 5 1027.2 1027.5 0.2
 
Date/Time
EST
Temp
°C
App
Temp
°C
Dew
Point
Rel
Hum
%
Delta-T
°C
Wind Press
QNH
hPa
Press
MSL
hPa
Rain
since 9 am
mm
Dir
 
Spd
km/h
Gust
km/h
Spd
kts
Gust
kts
25/11:30pm 5.7 3.3 5.4 98 0.1 N 7 9 4 5 1027.6 1028.0 0.2
25/11:00pm 5.3 3.0 5.0 98 0.1 NNW 6 9 3 5 1027.5 1027.9 0.2
25/10:30pm 5.0 2.7 4.7 98 0.1 NW 6 7 3 4 1027.6 1028.0 0.0
25/10:00pm 5.1 2.2 4.8 98 0.1 NNW 9 13 5 7 1027.7 1028.1 0.0
25/09:30pm 6.0 2.9 5.7 98 0.1 NNW 11 13 6 7 1027.7 1028.1 0.0
25/09:00pm 5.2 2.3 4.9 98 0.1 NW 9 9 5 5 1027.7 1028.1 0.0
25/08:30pm 5.5 2.7 5.2 98 0.1 NW 9 11 5 6 1027.6 1028.0 0.0
25/08:00pm 5.1 1.8 4.7 97 0.2 NNW 11 13 6 7 1027.4 1027.8 0.0
25/07:30pm 5.9 3.6 5.5 97 0.2 NW 7 9 4 5 1027.4 1027.8 0.0
25/07:00pm 6.5 4.4 5.8 95 0.3 NNW 6 7 3 4 1027.4 1027.8 0.0
25/06:30pm 7.5 5.6 6.6 94 0.4 N 6 7 3 4 1027.2 1027.5 0.0
25/06:00pm 8.0 6.5 6.9 93 0.5 WNW 4 4 2 2 1027.3 1027.7 0.0
25/05:30pm 8.4 6.9 6.9 90 0.7 N 4 6 2 3 1026.8 1027.1 0.0
25/05:00pm 9.0 7.2 7.3 89 0.8 N 6 7 3 4 1026.8 1027.1 0.0
25/04:30pm 9.5 8.5 7.4 87 1.0 N 2 4 1 2 1026.8 1027.1 0.0
25/04:00pm 10.2 7.9 7.6 84 1.3 NNW 9 15 5 8 1026.8 1027.1 0.0
25/03:30pm 10.6 9.3 7.5 81 1.5 ESE 4 6 2 3 1026.9 1027.2 0.0
25/03:00pm 10.6 9.3 7.7 82 1.4 SE 4 6 2 3 1026.8 1027.1 0.0
25/02:30pm 10.4 8.5 6.9 79 1.7 ESE 6 9 3 5 1026.7 1027.0 0.0
25/02:00pm 11.0 9.2 7.1 77 1.9 NNW 6 9 3 5 1026.9 1027.2 0.0
25/01:30pm 11.1 9.2 6.8 75 2.1 NNW 6 9 3 5 1027.1 1027.4 0.0
25/01:00pm 10.0 8.9 6.7 80 1.6 W 2 4 1 2 1027.4 1027.8 0.0
25/12:30pm 8.3 7.0 5.8 84 1.2 NW 2 6 1 3 1027.7 1028.1 0.0
25/12:00pm 8.2 7.5 7.0 92 0.6 CALM 0 0 0 0 1028.2 1028.6 0.0
25/11:30am 5.4 3.6 5.3 99 0.0 SE 4 6 2 3 1028.6 1029.0 0.0
25/11:00am 4.5 2.9 4.4 99 0.0 SE 2 6 1 3 1029.1 1029.5 0.0
25/10:30am 4.1 2.4 4.0 99 0.0 SE 2 4 1 2 1029.2 1029.6 0.0
25/10:00am 3.5 1.7 3.4 99 0.0 SE 2 6 1 3 1029.1 1029.5 0.0
25/09:30am 2.9 1.0 2.8 99 0.0 S 2 6 1 3 1029.1 1029.5 0.0
25/09:00am 2.0 -0.1 1.9 99 0.0 SSE 2 4 1 2 1029.1 1029.5 0.2
25/08:30am 0.5 -2.6 0.2 98 0.1 SE 6 7 3 4 1028.9 1029.3 0.2
25/08:00am -0.1 -3.9 -0.4 98 0.1 ESE 9 11 5 6 1028.8 1029.2 0.2
25/07:30am -0.3 -3.1 -0.6 98 0.1 S 4 6 2 3 1028.8 1029.2 0.2
25/07:00am -0.1 -2.1 -0.4 98 0.1 CALM 0 0 0 0 1028.7 1029.1 0.2
25/06:30am 0.7 -1.6 0.4 98 0.1 SE 2 2 1 1 1028.5 1028.9 0.2
25/06:00am 0.1 -1.9 -0.2 98 0.1 CALM 0 2 0 1 1028.4 1028.8 0.2
25/05:30am 0.0 -3.2 -0.3 98 0.1 SE 6 6 3 3 1028.4 1028.8 0.2
25/05:00am 0.2 -2.6 -0.1 98 0.1 ENE 4 6 2 3 1028.3 1028.7 0.2
25/04:30am 0.6 -1.3 0.3 98 0.1 CALM 0 2 0 1 1028.1 1028.5 0.2
25/04:00am 0.9 -1.8 0.6 98 0.1 SE 4 6 2 3 1028.1 1028.5 0.2
25/03:30am 1.2 -0.6 0.9 98 0.1 CALM 0 0 0 0 1028.3 1028.7 0.2
25/03:00am 1.7 -0.1 1.4 98 0.1 CALM 0 2 0 1 1028.3 1028.7 0.2
25/02:30am 2.0 0.3 1.7 98 0.1 CALM 0 0 0 0 1028.4 1028.8 0.2
25/02:00am 2.8 1.2 2.5 98 0.1 CALM 0 0 0 0 1028.4 1028.8 0.2
25/01:30am 2.5 0.9 2.2 98 0.1 CALM 0 0 0 0 1028.1 1028.5 0.2
25/01:00am 2.8 1.2 2.5 98 0.1 CALM 0 0 0 0 1028.3 1028.7 0.2
25/12:30am 2.6 1.0 2.2 97 0.2 CALM 0 0 0 0 1028.2 1028.6 0.2
25/12:00am 3.1 1.5 2.7 97 0.2 CALM 0 0 0 0 1028.4 1028.8 0.2
 
Date/Time
EST
Temp
°C
App
Temp
°C
Dew
Point
Rel
Hum
%
Delta-T
°C
Wind Press
QNH
hPa
Press
MSL
hPa
Rain
since 9 am
mm
Dir
 
Spd
km/h
Gust
km/h
Spd
kts
Gust
kts
24/11:30pm 3.7 1.9 3.3 97 0.2 SW 2 4 1 2 1028.5 1028.9 0.0
24/11:00pm 4.3 3.0 3.9 97 0.2 CALM 0 0 0 0 1028.4 1028.8 0.0
24/10:30pm 4.5 3.2 4.1 97 0.2 CALM 0 0 0 0 1028.6 1029.0 0.0
24/10:00pm 5.0 3.0 4.6 97 0.2 WNW 4 6 2 3 1028.7 1029.1 0.0
24/09:30pm 5.5 4.0 5.2 98 0.1 WNW 2 4 1 2 1028.6 1029.0 0.0
24/09:00pm 5.6 3.8 5.2 97 0.2 W 4 4 2 2 1028.5 1028.9 0.0
24/08:30pm 5.9 4.5 5.6 98 0.1 W 2 6 1 3 1028.4 1028.8 0.0
24/08:00pm 5.6 4.1 5.2 97 0.2 WSW 2 6 1 3 1028.3 1028.7 0.0
24/07:30pm 5.2 3.3 4.8 97 0.2 N 4 4 2 2 1028.4 1028.8 0.0
24/07:00pm 5.6 3.3 5.0 96 0.3 NNW 6 6 3 3 1028.5 1028.9 0.0
24/06:30pm 5.3 3.0 4.6 95 0.3 NNW 6 6 3 3 1028.6 1029.0 0.0
24/06:00pm 5.7 3.2 4.7 93 0.4 N 7 9 4 5 1028.4 1028.8 0.0
24/05:30pm 6.4 4.0 5.2 92 0.5 N 7 9 4 5 1028.3 1028.7 0.0
24/05:00pm 6.8 4.0 5.0 88 0.8 N 9 11 5 6 1028.0 1028.4 0.0
24/04:30pm 7.6 4.1 5.4 86 1.0 NNW 13 17 7 9 1028.1 1028.5 0.0
24/04:00pm 9.6 7.4 3.6 66 2.6 NNW 4 4 2 2 1027.9 1028.3 0.0
24/03:30pm 9.9 7.3 3.0 62 3.0 N 6 9 3 5 1028.1 1028.5 0.0
24/03:00pm 10.9 8.3 4.1 63 3.1 NNW 7 9 4 5 1028.0 1028.4 0.0
24/02:30pm 11.2 8.7 3.7 60 3.4 NW 6 9 3 5 1028.0 1028.4 0.0
24/02:00pm 10.6 8.1 3.6 62 3.1 NNW 6 9 3 5 1028.0 1028.4 0.0
24/01:30pm 10.7 8.1 3.3 60 3.3 NNW 6 7 3 4 1028.3 1028.7 0.0
24/01:00pm 10.0 7.3 2.8 61 3.1 NNW 6 9 3 5 1028.6 1029.0 0.0
24/12:30pm 10.1 7.8 2.9 61 3.2 NNW 4 6 2 3 1028.9 1029.3 0.0
24/12:00pm 9.3 6.8 1.7 59 3.2 NW 4 6 2 3 1029.1 1029.5 0.0
24/11:30am 8.9 7.0 0.4 55 3.5 CALM 0 0 0 0 1029.4 1029.8 0.0
24/11:00am 7.2 5.2 0.2 61 2.8 CALM 0 0 0 0 1029.7 1030.1 0.0
24/10:30am 5.2 3.2 -0.2 68 2.1 CALM 0 0 0 0 1029.9 1030.2 0.0
24/10:00am 4.0 1.9 -0.6 72 1.7 CALM 0 2 0 1 1029.7 1030.1 0.0
24/09:30am 1.7 -1.3 -1.7 78 1.2 NNW 4 6 2 3 1029.9 1030.2 0.0
24/09:00am 1.1 -2.3 -2.3 78 1.2 NNW 6 7 3 4 1029.7 1030.1 0.0
24/08:30am 0.1 -3.0 -2.6 82 0.9 NW 4 6 2 3 1029.4 1029.8 0.0
24/08:00am -0.6 -4.1 -2.8 85 0.7 W 6 6 3 3 1029.1 1029.5 0.0
24/07:30am -0.2 -3.6 -2.4 85 0.8 W 6 7 3 4 1028.9 1029.3 0.0
24/07:00am -0.3 -3.3 -2.2 87 0.6 NW 4 4 2 2 1028.9 1029.3 0.0
24/06:30am -0.1 -3.2 -2.3 85 0.8 NNW 4 4 2 2 1028.8 1029.2 0.0
24/06:00am 0.2 -3.2 -2.0 85 0.8 WNW 6 6 3 3 1028.6 1029.0 0.0
24/05:30am -0.1 -3.5 -2.2 86 0.7 W 6 6 3 3 1028.5 1028.9 0.0
24/05:00am 0.6 -2.4 -1.6 85 0.8 WNW 4 7 2 4 1028.4 1028.8 0.0
24/04:30am 0.2 -2.4 -2.0 85 0.8 W 2 4 1 2 1028.3 1028.7 0.0
24/04:00am 1.3 -1.6 -0.8 86 0.8 NW 4 4 2 2 1028.1 1028.5 0.0
24/03:30am 1.4 -0.7 -0.7 86 0.8 CALM 0 0 0 0 1028.1 1028.5 0.0
24/03:00am 1.1 -1.7 -0.7 88 0.6 WNW 4 6 2 3 1028.3 1028.7 0.0
24/02:30am 1.5 -0.5 -0.4 87 0.7 CALM 0 0 0 0 1028.3 1028.7 0.0
24/02:00am 1.9 -0.9 -0.2 86 0.8 WNW 4 4 2 2 1028.5 1028.9 0.0
24/01:30am 1.8 -1.0 -0.4 85 0.8 WSW 4 4 2 2 1028.4 1028.8 0.0
24/01:00am 2.3 -0.1 -0.1 84 0.9 SSW 2 4 1 2 1028.6 1029.0 0.0
24/12:30am 2.9 0.2 0.3 83 1.0 WSW 4 6 2 3 1028.6 1029.0 0.0
24/12:00am 3.5 0.5 0.7 82 1.1 WSW 6 6 3 3 1028.7 1029.1 0.0

Other Formats:

Comma delimited format used in spreadsheet applications
http://www.bom.gov.au/fwo/IDT60801/IDT60801.94955.axf

JavaScript Object Notation format (JSON) in row-major order
http://www.bom.gov.au/fwo/IDT60801/IDT60801.94955.json